Beach, ND

7:00 PM MDT on September 22, 2017 (GMT -0600)
Beach

Weather History for K20U - February, 2013

Change the Weather History Date:

Wednesday, February 20, 2013

  Actual Average (KGDV) Record (KGDV)
Temperature  
Mean Temperature 13 °F -  
Max Temperature 23 °F 31 °F 57 °F (2017)
Min Temperature 3 °F 12 °F 0 °F (2001)
Degree Days  
Heating Degree Days 52    
Moisture  
Dew Point 3 °F    
Average Humidity 69    
Maximum Humidity 85    
Minimum Humidity 54    
Precipitation  
Precipitation 0.00 in - - ()
Sea Level Pressure  
Sea Level Pressure 29.91 in    
Wind  
Wind Speed 20 mph (SE)    
Max Wind Speed 29 mph    
Max Gust Speed 40 mph    
Visibility 10 miles    
Events      
Averages and records for this station are not official NWS values.
T = Trace of Precipitation, MM = Missing Value Source: NWS Daily Summary

Daily Weather History Graph

Daily Weather History Graph

Search for Another Location

Airport or City:

Trip Planner

Search our weather history database for the weather conditions in past years. The results will help you decide how hot, cold, wet, or windy it might be!

Date:

Astronomy

Feb. 20, 2013 Rise Set
Actual Time 6:51 AM MST 5:28 PM MST
Civil Twilight 6:20 AM MST 5:59 PM MST
Nautical Twilight 5:45 AM MST 6:34 PM MST
Astronomical Twilight 5:09 AM MST 7:10 PM MST
Moon 12:40 PM MST (2/20) 3:25 AM MST (2/20)
Length of Visible Light 11h 39m
Length of Day
10h 37m
Waxing Gibbous, 76% of the Moon is Illuminated
Feb 20
Waxing Gibbous
Feb 25
Full
Mar 4
Last Quarter
Mar 11
New
Mar 19
First Quarter

Hourly Weather History & Observations

Time (MST) Temp. Windchill Dew Point Humidity Pressure Visibility Wind Dir Wind Speed Gust Speed Precip Events Conditions
12:15 AM 6.8 °F -15.5 °F -2.2 °F 67% 29.97 in 10.0 mi ESE 26.5 mph 34.5 mph N/A   Scattered Clouds
12:35 AM 6.8 °F -15.9 °F -2.2 °F 67% 29.96 in 10.0 mi SE 27.6 mph 33.4 mph N/A   Partly Cloudy
12:55 AM 5.0 °F -17.1 °F -2.2 °F 72% 29.96 in 10.0 mi SE 24.2 mph 32.2 mph N/A   Scattered Clouds
1:15 AM 6.8 °F -15.9 °F -4.0 °F 61% 29.95 in 10.0 mi SE 27.6 mph 36.8 mph N/A   Scattered Clouds
1:35 AM 6.8 °F -15.9 °F -4.0 °F 61% 29.95 in 10.0 mi SE 27.6 mph 35.7 mph N/A   Mostly Cloudy
1:55 AM 5.0 °F -18.3 °F -4.0 °F 66% 29.94 in 10.0 mi SE 27.6 mph 34.5 mph N/A   Scattered Clouds
2:15 AM 5.0 °F -18.7 °F -4.0 °F 66% 29.94 in 10.0 mi SE 28.8 mph 40.3 mph N/A   Scattered Clouds
2:35 AM 5.0 °F -18.7 °F -2.2 °F 72% 29.93 in 10.0 mi SE 28.8 mph 34.5 mph N/A   Scattered Clouds
2:55 AM 5.0 °F -17.5 °F -2.2 °F 72% 29.93 in 10.0 mi SE 25.3 mph 34.5 mph N/A   Scattered Clouds
3:15 AM 5.0 °F -16.2 °F -2.2 °F 72% 29.93 in 10.0 mi SE 21.9 mph 29.9 mph N/A   Scattered Clouds
3:35 AM 5.0 °F -15.7 °F -2.2 °F 72% 29.92 in 10.0 mi SE 20.7 mph 28.8 mph N/A   Scattered Clouds
3:55 AM 5.0 °F -14.2 °F -2.2 °F 72% 29.92 in 10.0 mi SE 17.3 mph 29.9 mph N/A   Scattered Clouds
4:15 AM 5.0 °F -15.7 °F -2.2 °F 72% 29.93 in 10.0 mi SE 20.7 mph 32.2 mph N/A   Scattered Clouds
4:35 AM 5.0 °F -16.2 °F -2.2 °F 72% 29.93 in 10.0 mi SE 21.9 mph 28.8 mph N/A   Scattered Clouds
4:55 AM 5.0 °F -16.7 °F -2.2 °F 72% 29.92 in 10.0 mi SE 23.0 mph 28.8 mph N/A   Partly Cloudy
5:15 AM 5.0 °F -15.2 °F -2.2 °F 72% 29.92 in 10.0 mi SE 19.6 mph 29.9 mph N/A   Partly Cloudy
5:35 AM 5.0 °F -15.2 °F -2.2 °F 72% 29.92 in 10.0 mi SSE 19.6 mph 26.5 mph N/A   Partly Cloudy
5:55 AM 5.0 °F -15.7 °F -2.2 °F 72% 29.93 in 10.0 mi SSE 20.7 mph 26.5 mph N/A   Partly Cloudy
6:15 AM 5.0 °F -14.7 °F -2.2 °F 72% 29.92 in 10.0 mi SE 18.4 mph 25.3 mph N/A   Partly Cloudy
6:35 AM 5.0 °F -14.2 °F -2.2 °F 72% 29.93 in 10.0 mi SE 17.3 mph 23.0 mph N/A   Partly Cloudy
6:55 AM 5.0 °F -14.7 °F -2.2 °F 72% 29.92 in 10.0 mi SE 18.4 mph 28.8 mph N/A   Clear
7:15 AM 3.2 °F -17.6 °F -2.2 °F 78% 29.92 in 10.0 mi SE 19.6 mph 25.3 mph N/A   Clear
7:35 AM 5.0 °F -14.7 °F -2.2 °F 72% 29.92 in 10.0 mi SE 18.4 mph 26.5 mph N/A   Clear
7:55 AM 5.0 °F -14.7 °F -2.2 °F 72% 29.93 in 10.0 mi SE 18.4 mph 24.2 mph N/A   Clear
8:15 AM 5.0 °F -14.7 °F -0.4 °F 78% 29.93 in 10.0 mi SE 18.4 mph 25.3 mph N/A   Clear
8:35 AM 5.0 °F -14.7 °F -0.4 °F 78% 29.93 in 10.0 mi SE 18.4 mph 26.5 mph N/A   Clear
8:55 AM 6.8 °F -13.4 °F -0.4 °F 72% 29.93 in 10.0 mi SE 20.7 mph 27.6 mph N/A   Clear
9:15 AM 6.8 °F -13.4 °F -0.4 °F 72% 29.93 in 10.0 mi SE 20.7 mph 27.6 mph N/A   Clear
9:35 AM 6.8 °F -10.7 °F -0.4 °F 72% 29.93 in 10.0 mi SE 15.0 mph 25.3 mph N/A   Clear
9:55 AM 8.6 °F -10.5 °F 1.4 °F 73% 29.93 in 10.0 mi SE 19.6 mph 27.6 mph N/A   Clear
10:15 AM 8.6 °F -9.5 °F 1.4 °F 73% 29.93 in 10.0 mi SE 17.3 mph 25.3 mph N/A   Clear
10:35 AM 10.4 °F -8.6 °F 1.4 °F 67% 29.93 in 10.0 mi SE 20.7 mph 24.2 mph N/A   Clear
10:55 AM 12.2 °F -6.7 °F 3.2 °F 67% 29.92 in 10.0 mi SE 21.9 mph 28.8 mph N/A   Clear
11:15 AM 14.0 °F -3.4 °F 5.0 °F 67% 29.93 in 10.0 mi SE 19.6 mph 27.6 mph N/A   Clear
11:35 AM 14.0 °F -4.3 °F 5.0 °F 67% 29.92 in 10.0 mi SE 21.9 mph 26.5 mph N/A   Clear
11:55 AM 15.8 °F -0.6 °F 5.0 °F 62% 29.92 in 10.0 mi SSE 18.4 mph 26.5 mph N/A   Clear
12:15 PM 15.8 °F -1.5 °F 6.8 °F 68% 29.91 in 10.0 mi SE 20.7 mph 26.5 mph N/A   Clear
12:35 PM 17.6 °F 0.5 °F 6.8 °F 63% 29.90 in 10.0 mi SSE 21.9 mph 27.6 mph N/A   Clear
12:55 PM 17.6 °F 3.2 °F 6.8 °F 63% 29.90 in 10.0 mi SSE 15.0 mph 23.0 mph N/A   Clear
1:15 PM 17.6 °F 2.2 °F 6.8 °F 63% 29.89 in 10.0 mi SSE 17.3 mph - N/A   Clear
1:35 PM 19.4 °F 5.0 °F 8.6 °F 63% 29.89 in 10.0 mi SSE 16.1 mph 24.2 mph N/A   Clear
1:55 PM 19.4 °F 3.6 °F 6.8 °F 58% 29.89 in 10.0 mi SE 19.6 mph 25.3 mph N/A   Clear
2:15 PM 21.2 °F 6.4 °F 8.6 °F 58% 29.88 in 10.0 mi SSE 18.4 mph 23.0 mph N/A   Partly Cloudy
2:35 PM 21.2 °F 6.8 °F 8.6 °F 58% 29.88 in 10.0 mi SSE 17.3 mph 20.7 mph N/A   Mostly Cloudy
2:55 PM 21.2 °F 6.8 °F 8.6 °F 58% 29.88 in 10.0 mi SSE 17.3 mph - N/A   Overcast
3:15 PM 23.0 °F 10.1 °F 8.6 °F 54% 29.88 in 10.0 mi SSE 15.0 mph 18.4 mph N/A   Overcast
3:35 PM 23.0 °F 10.6 °F 8.6 °F 54% 29.87 in 10.0 mi SSE 13.8 mph - N/A   Overcast
3:55 PM 23.0 °F 10.6 °F 8.6 °F 54% 29.87 in 10.0 mi SE 13.8 mph - N/A   Overcast
4:15 PM 23.0 °F 10.6 °F 8.6 °F 54% 29.87 in 10.0 mi SSE 13.8 mph - N/A   Overcast
4:35 PM 23.0 °F 11.7 °F 8.6 °F 54% 29.88 in 10.0 mi SSE 11.5 mph - N/A   Overcast
4:55 PM 23.0 °F 11.7 °F 10.4 °F 59% 29.87 in 10.0 mi SE 11.5 mph - N/A   Partly Cloudy
5:15 PM 21.2 °F 10.1 °F 8.6 °F 58% 29.87 in 10.0 mi SSE 10.4 mph - N/A   Clear
5:35 PM 17.6 °F 8.2 °F 8.6 °F 68% 29.87 in 10.0 mi SE 6.9 mph - N/A   Partly Cloudy
5:55 PM 17.6 °F 8.2 °F 8.6 °F 68% 29.88 in 10.0 mi SE 6.9 mph - N/A   Partly Cloudy
6:15 PM 15.8 °F 6.1 °F 8.6 °F 73% 29.88 in 10.0 mi SE 6.9 mph - N/A   Partly Cloudy
6:35 PM 15.8 °F 6.1 °F 8.6 °F 73% 29.89 in 10.0 mi SE 6.9 mph - N/A   Partly Cloudy
6:55 PM 15.8 °F 5.1 °F 6.8 °F 68% 29.90 in 10.0 mi SE 8.1 mph - N/A   Scattered Clouds
7:15 PM 15.8 °F 3.4 °F 6.8 °F 68% 29.90 in 10.0 mi SE 10.4 mph - N/A   Partly Cloudy
7:35 PM 15.8 °F 3.4 °F 6.8 °F 68% 29.90 in 10.0 mi SE 10.4 mph - N/A   Partly Cloudy
7:55 PM 15.8 °F 3.4 °F 6.8 °F 68% 29.91 in 10.0 mi SE 10.4 mph - N/A   Partly Cloudy
8:15 PM 14.0 °F 2.9 °F 6.8 °F 73% 29.91 in 10.0 mi SE 8.1 mph - N/A   Partly Cloudy
8:35 PM 14.0 °F 3.9 °F 6.8 °F 73% 29.91 in 10.0 mi SE 6.9 mph - N/A   Clear
8:55 PM 14.0 °F 2.9 °F 6.8 °F 73% 29.91 in 10.0 mi SE 8.1 mph - N/A   Clear
9:35 PM 12.2 °F 2.9 °F 5.0 °F 73% 29.92 in 10.0 mi SE 5.8 mph - N/A   Clear
9:55 PM 12.2 °F 4.3 °F 6.8 °F 79% 29.93 in 10.0 mi SE 4.6 mph - N/A   Clear
10:15 PM 12.2 °F 1.7 °F 6.8 °F 79% 29.93 in 10.0 mi SSE 6.9 mph - N/A   Clear
10:35 PM 12.2 °F 0.7 °F 6.8 °F 79% 29.93 in 10.0 mi SE 8.1 mph - N/A   Clear
10:55 PM 12.2 °F -1.0 °F 6.8 °F 79% 29.93 in 10.0 mi SE 10.4 mph - N/A   Partly Cloudy
11:15 PM 12.2 °F -1.8 °F 6.8 °F 79% 29.93 in 10.0 mi SE 11.5 mph - N/A   Clear
11:35 PM 12.2 °F -1.0 °F 6.8 °F 79% 29.93 in 10.0 mi SSE 10.4 mph - N/A   Clear
11:55 PM 12.2 °F -1.0 °F 8.6 °F 85% 29.94 in 10.0 mi SE 10.4 mph - N/A   Clear